Terminal Aerodrome Forecast
Issued by NWS

Home | Current Version | Previous Version | Text Only | Print | Product List | Glossary On
Versions: 1 2 3 4 5 6 7 8 9 10 11 12
000
FTUS44 KSJT 302324
TAFBBD
TAF
KBBD 302324Z 3100/3124 17009KT P6SM VCSH SCT080
      TEMPO 3100/3101 VRB25G35KT 5SM -SHRA BKN070
     FM310100 15007KT P6SM SCT250
     FM311500 18009KT P6SM SCT060
      AMD NOT SKED=

USA.gov is the U.S. government's official web portal to all federal, state and local government web resources and services.